Time;durP1;ratioP1;P1;durP2;ratioP2;P2;SDS_P1;SDS_P2;PMS_P1;PMS_P2;Temp;Humidity;BMP_temperature;BMP_pressure;BME280_temperature;BME280_humidity;BME280_pressure;Samples;Min_cycle;Max_cycle;Signal;HPM_P1;HPM_P2
2023/08/11 00:00:04;;;;;;;;;;;;;;;19.79;72.64;99820.28;322063;30;5343;-73
2023/08/11 00:00:21;;;;;;;;;;;;;;;19.79;72.91;99817.63;323524;30;3037;-73
2023/08/11 00:00:31;;;;;;;;;;;;;;;19.78;72.63;99821.25;317355;31;1278;-73
2023/08/11 00:00:41;;;;;;;;;;;;;;;19.77;72.57;99819.56;318736;30;3599;-73
2023/08/11 00:00:52;;;;;;;;;;;;;;;19.77;72.49;99819.56;318142;31;3489;-73
2023/08/11 00:01:02;;;;;;;;;;;;;;;19.77;72.63;99820.41;317625;31;1270;-73
2023/08/11 00:01:12;;;;;;;;;;;;;;;19.77;72.66;99816.91;315769;31;3341;-73
2023/08/11 00:01:23;;;;;;;;;;;;;;;19.77;72.51;99819.56;313595;31;2430;-73
2023/08/11 00:01:33;;;;;;;;;;;;;;;19.77;72.65;99814.25;314080;31;1406;-73
2023/08/11 00:01:43;;;;;;;;;;;;;;;19.76;72.79;99817.84;311587;31;2389;-73
2023/08/11 00:01:53;;;;;;;;;;;;;;;19.76;72.59;99820.50;311675;31;3007;-73
2023/08/11 00:02:05;;;;;;;;;;;;;;;19.75;72.66;99817.00;310667;31;930;-75
2023/08/11 00:02:15;;;;;;;;;;;;;;;19.76;72.47;99820.50;305989;32;1668;-73
2023/08/11 00:02:26;;;;;;;;;;;;;;;19.76;72.69;99817.84;305770;32;4273;-73
2023/08/11 00:02:36;;;;;;;;;;;;;;;19.76;73.10;99812.53;307164;31;4775;-73
2023/08/11 00:02:49;;;;;;;;;;;;;;;19.76;72.70;99812.53;310751;31;824;-73
2023/08/11 00:03:00;;;;;;;;;;;;;;;19.76;73.03;99823.16;312158;31;4775;-73
2023/08/11 00:03:10;;;;;;;;;;;;;;;19.77;72.67;99819.56;311532;31;4498;-73
2023/08/11 00:03:20;;;;;;;;;;;;;;;19.77;72.84;99824.84;309001;31;4449;-73
2023/08/11 00:03:30;;;;;;;;;;;;;;;19.76;72.48;99823.16;311817;31;849;-74
2023/08/11 00:03:41;;;;;;;;;;;;;;;19.77;72.60;99819.56;310937;31;3351;-74
2023/08/11 00:03:53;;;;;;;;;;;;;;;19.78;72.74;99821.25;309945;31;3004;-75
2023/08/11 00:04:03;;;;;;;;;;;;;;;19.78;72.69;99815.94;310785;31;803;-75
2023/08/11 00:04:16;;;;;;;;;;;;;;;19.78;72.88;99815.94;310841;31;3597;-74
2023/08/11 00:04:26;;;;;;;;;;;;;;;19.79;72.96;99817.63;309842;31;4903;-74
2023/08/11 00:04:37;;;;;;;;;;;;;;;19.79;72.96;99822.94;309534;31;5858;-74
2023/08/11 00:04:47;;;;;;;;;;;;;;;19.78;72.82;99816.78;310023;31;1093;-74
2023/08/11 00:04:57;;;;;;;;;;;;;;;19.78;72.82;99822.09;304777;32;5908;-74
2023/08/11 00:05:08;;;;;;;;;;;;;;;19.78;72.71;99821.25;301521;32;6537;-74
2023/08/11 00:05:18;;;;;;;;;;;;;;;19.78;72.76;99821.25;302167;32;814;-74
2023/08/11 00:05:28;;;;;;;;;;;;;;;19.78;73.25;99822.09;303955;32;6134;-74
2023/08/11 00:05:39;;;;;;;;;;;;;;;19.78;72.88;99819.44;301596;32;6422;-73
2023/08/11 00:05:49;;;;;;;;;;;;;;;19.77;72.79;99820.41;301195;32;797;-74
2023/08/11 00:06:00;;;;;;;;;;;;;;;19.77;72.93;99823.06;302239;32;4654;-74
2023/08/11 00:06:10;;;;;;;;;;;;;;;19.77;72.79;99823.06;301190;32;4315;-74
2023/08/11 00:06:20;;;;;;;;;;;;;;;19.76;72.97;99817.84;299048;32;5550;-74
2023/08/11 00:06:31;;;;;;;;;;;;;;;19.75;72.91;99817.00;295873;33;1495;-74
2023/08/11 00:06:41;;;;;;;;;;;;;;;19.75;72.82;99826.78;296509;33;7242;-74
2023/08/11 00:06:51;;;;;;;;;;;;;;;19.75;72.86;99824.13;297076;32;8011;-74
2023/08/11 00:07:03;;;;;;;;;;;;;;;19.74;73.03;99820.63;297063;33;1368;-74
2023/08/11 00:07:13;;;;;;;;;;;;;;;19.74;73.13;99828.59;292840;33;7999;-74
2023/08/11 00:07:23;;;;;;;;;;;;;;;19.74;73.00;99819.78;291504;33;8871;-74
2023/08/11 00:07:34;;;;;;;;;;;;;;;19.74;72.93;99830.41;294167;33;843;-74
2023/08/11 00:07:45;;;;;;;;;;;;;;;19.74;73.04;99822.44;292700;33;8380;-74
2023/08/11 00:07:55;;;;;;;;;;;;;;;19.75;73.23;99818.81;292825;33;8779;-74
2023/08/11 00:08:05;;;;;;;;;;;;;;;19.75;73.32;99824.13;291557;33;6858;-74
2023/08/11 00:08:16;;;;;;;;;;;;;;;19.75;72.79;99826.78;290347;34;1450;-74
2023/08/11 00:08:26;;;;;;;;;;;;;;;19.74;73.10;99817.97;290077;33;6593;-74
2023/08/11 00:08:38;;;;;;;;;;;;;;;19.76;72.97;99817.84;288787;34;7854;-74
2023/08/11 00:08:55;;;;;;;;;;;;;;;19.75;72.89;99824.13;288091;34;2575;-74
2023/08/11 00:10:29;;;;;;;;;;;;;;;19.74;73.13;99823.28;2491639;27;19937;-73
2023/08/11 00:10:40;;;;;;;;;;;;;;;19.74;73.50;99825.94;354524;27;819;-73
2023/08/11 00:10:52;;;;;;;;;;;;;;;19.74;73.03;99819.78;353204;28;850;-73
2023/08/11 00:11:02;;;;;;;;;;;;;;;19.74;72.98;99822.44;350541;28;1285;-73
2023/08/11 00:11:12;;;;;;;;;;;;;;;19.74;73.24;99819.78;348806;28;1219;-73
2023/08/11 00:11:22;;;;;;;;;;;;;;;19.74;73.10;99819.78;347730;28;758;-73
2023/08/11 00:11:33;;;;;;;;;;;;;;;19.74;73.32;99819.78;349150;28;1010;-73
2023/08/11 00:11:43;;;;;;;;;;;;;;;19.73;72.98;99823.41;347658;28;1359;-73
2023/08/11 00:11:53;;;;;;;;;;;;;;;19.74;73.29;99819.78;348935;28;738;-73
2023/08/11 00:12:04;;;;;;;;;;;;;;;19.73;73.23;99820.75;348744;28;1584;-73
2023/08/11 00:12:14;;;;;;;;;;;;;;;19.74;73.17;99811.81;348923;28;887;-73
2023/08/11 00:12:25;;;;;;;;;;;;;;;19.73;73.20;99818.94;349607;28;1380;-73
2023/08/11 00:12:35;;;;;;;;;;;;;;;19.73;72.81;99818.09;350242;28;1209;-73
2023/08/11 00:12:45;;;;;;;;;;;;;;;19.72;72.94;99816.38;351727;28;1381;-73
2023/08/11 00:12:55;;;;;;;;;;;;;;;19.71;73.08;99820.00;352708;28;1316;-73
2023/08/11 00:13:08;;;;;;;;;;;;;;;19.72;72.81;99821.69;353123;28;918;-73
2023/08/11 00:13:18;;;;;;;;;;;;;;;19.71;73.05;99820.84;351694;28;910;-73
2023/08/11 00:13:30;;;;;;;;;;;;;;;19.71;73.03;99815.53;348891;28;1357;-73
2023/08/11 00:13:41;;;;;;;;;;;;;;;19.69;72.78;99822.78;350269;28;1277;-73
2023/08/11 00:13:51;;;;;;;;;;;;;;;19.69;73.25;99816.63;348796;28;862;-73
2023/08/11 00:14:02;;;;;;;;;;;;;;;19.69;72.82;99816.63;350562;28;1235;-73
2023/08/11 00:14:12;;;;;;;;;;;;;;;19.68;73.09;99821.09;347357;28;1339;-73
2023/08/11 00:14:22;;;;;;;;;;;;;;;19.69;73.02;99821.94;348165;28;1190;-73
2023/08/11 00:14:32;;;;;;;;;;;;;;;19.68;72.86;99821.09;347552;28;680;-73
2023/08/11 00:14:42;;;;;;;;;;;;;;;19.69;73.07;99821.94;350108;28;821;-73
2023/08/11 00:14:53;;;;;;;;;;;;;;;19.70;73.24;99820.97;349709;28;1068;-73
2023/08/11 00:15:03;;;;;;;;;;;;;;;19.69;72.81;99816.63;347610;28;840;-73
2023/08/11 00:15:13;;;;;;;;;;;;;;;19.67;72.95;99814.09;348453;28;1386;-73
2023/08/11 00:15:24;;;;;;;;;;;;;;;19.67;73.21;99811.41;348928;28;851;-73
2023/08/11 00:15:39;;;;;;;;;;;;;;;19.67;72.92;99816.72;348948;28;903;-73
2023/08/11 00:15:49;;;;;;;;;;;;;;;19.68;72.88;99814.94;348697;28;1027;-73
2023/08/11 00:16:03;;;;;;;;;;;;;;;19.67;73.08;99816.72;346199;28;888;-73
2023/08/11 00:16:13;;;;;;;;;;;;;;;19.67;72.67;99811.41;340690;28;884;-74
2023/08/11 00:16:24;;;;;;;;;;;;;;;19.68;72.91;99810.47;341937;28;1332;-74
2023/08/11 00:16:34;;;;;;;;;;;;;;;19.68;72.83;99815.78;342258;28;950;-74
2023/08/11 00:16:45;;;;;;;;;;;;;;;19.69;72.96;99820.13;342231;28;799;-74
2023/08/11 00:16:56;;;;;;;;;;;;;;;19.69;72.85;99817.47;340185;29;1270;-74
2023/08/11 00:17:06;;;;;;;;;;;;;;;19.69;72.50;99817.47;341424;28;872;-74
2023/08/11 00:17:16;;;;;;;;;;;;;;;19.71;72.59;99820.00;343428;28;877;-74
2023/08/11 00:17:27;;;;;;;;;;;;;;;19.70;72.61;99815.66;343086;28;1317;-74
2023/08/11 00:17:37;;;;;;;;;;;;;;;19.71;72.88;99810.22;343442;28;737;-74
2023/08/11 00:17:47;;;;;;;;;;;;;;;19.71;72.53;99814.69;342139;28;995;-74
2023/08/11 00:18:00;;;;;;;;;;;;;;;19.71;72.77;99814.69;343407;28;773;-74
2023/08/11 00:18:10;;;;;;;;;;;;;;;19.71;72.57;99817.34;336847;29;2963;-74
2023/08/11 00:18:20;;;;;;;;;;;;;;;19.71;72.47;99820.00;336222;29;4522;-74
2023/08/11 00:18:31;;;;;;;;;;;;;;;19.70;72.84;99813.84;337050;29;4701;-74
2023/08/11 00:18:41;;;;;;;;;;;;;;;19.71;72.78;99820.84;334951;29;2844;-74
2023/08/11 00:18:51;;;;;;;;;;;;;;;19.70;72.70;99816.50;335885;29;1417;-74
2023/08/11 00:19:01;;;;;;;;;;;;;;;19.71;72.48;99815.53;338242;29;933;-74
2023/08/11 00:19:12;;;;;;;;;;;;;;;19.71;72.48;99820.84;338158;29;999;-74
2023/08/11 00:19:22;;;;;;;;;;;;;;;19.71;72.43;99820.00;337268;29;1910;-74
2023/08/11 00:19:32;;;;;;;;;;;;;;;19.71;72.73;99809.38;338224;29;858;-74
2023/08/11 00:19:42;;;;;;;;;;;;;;;19.71;72.63;99817.34;336861;29;1283;-74
2023/08/11 00:19:52;;;;;;;;;;;;;;;19.71;72.66;99812.03;334204;29;1694;-74
2023/08/11 00:20:05;;;;;;;;;;;;;;;19.71;72.69;99814.69;335649;29;870;-74
2023/08/11 00:20:15;;;;;;;;;;;;;;;19.70;72.90;99813.84;332668;29;1390;-74
2023/08/11 00:20:28;;;;;;;;;;;;;;;19.71;72.64;99820.00;333360;29;1405;-74
2023/08/11 00:20:38;;;;;;;;;;;;;;;19.70;72.59;99818.31;332850;29;1855;-74
2023/08/11 00:20:48;;;;;;;;;;;;;;;19.70;72.95;99823.63;330537;29;816;-74
2023/08/11 00:20:58;;;;;;;;;;;;;;;19.70;72.73;99813.00;330209;29;1942;-74
2023/08/11 00:21:08;;;;;;;;;;;;;;;19.69;72.75;99817.47;328948;29;1704;-74
2023/08/11 00:21:19;;;;;;;;;;;;;;;19.70;72.65;99820.97;328941;29;1439;-74
2023/08/11 00:21:29;;;;;;;;;;;;;;;19.69;72.41;99816.63;326854;30;843;-74
2023/08/11 00:21:39;;;;;;;;;;;;;;;19.71;72.66;99814.69;325525;30;1475;-74
2023/08/11 00:21:49;;;;;;;;;;;;;;;19.71;72.73;99820.00;325111;30;1344;-74
2023/08/11 00:22:00;;;;;;;;;;;;;;;19.71;72.79;99820.00;327943;30;1439;-74
2023/08/11 00:22:10;;;;;;;;;;;;;;;19.70;72.83;99813.00;330626;29;1305;-74
2023/08/11 00:22:20;;;;;;;;;;;;;;;19.70;72.76;99818.31;331525;29;1896;-74
2023/08/11 00:22:30;;;;;;;;;;;;;;;19.70;72.63;99818.31;329766;29;934;-74
2023/08/11 00:22:40;;;;;;;;;;;;;;;19.70;72.59;99819.16;324647;30;2020;-74
2023/08/11 00:22:51;;;;;;;;;;;;;;;19.70;72.84;99818.31;325088;30;2441;-74
2023/08/11 00:23:01;;;;;;;;;;;;;;;19.71;72.76;99814.69;324447;30;1302;-74
2023/08/11 00:23:11;;;;;;;;;;;;;;;19.71;72.45;99814.69;326762;30;2538;-74
2023/08/11 00:23:21;;;;;;;;;;;;;;;19.70;72.37;99813.84;326245;30;2265;-74
2023/08/11 00:23:32;;;;;;;;;;;;;;;19.70;72.43;99813.84;329282;30;1271;-74
2023/08/11 00:23:43;;;;;;;;;;;;;;;19.70;72.70;99815.66;328789;29;2171;-74
2023/08/11 00:23:53;;;;;;;;;;;;;;;19.70;72.75;99816.50;329074;30;1240;-74
2023/08/11 00:24:04;;;;;;;;;;;;;;;19.69;72.43;99816.63;326449;30;1334;-74
2023/08/11 00:24:15;;;;;;;;;;;;;;;19.70;72.54;99818.31;324424;30;884;-74
2023/08/11 00:24:25;;;;;;;;;;;;;;;19.70;72.34;99815.66;321255;30;2175;-74
2023/08/11 00:24:35;;;;;;;;;;;;;;;19.70;72.95;99813.00;321144;30;2831;-74
2023/08/11 00:24:45;;;;;;;;;;;;;;;19.70;72.64;99813.00;324539;30;883;-74
2023/08/11 00:24:55;;;;;;;;;;;;;;;19.71;72.79;99817.34;322911;30;3136;-74
2023/08/11 00:25:06;;;;;;;;;;;;;;;19.70;72.99;99813.00;320434;30;3074;-74
2023/08/11 00:25:16;;;;;;;;;;;;;;;19.71;72.98;99814.69;318364;31;1211;-74
2023/08/11 00:25:26;;;;;;;;;;;;;;;19.70;73.00;99810.34;318687;30;3486;-74
2023/08/11 00:25:36;;;;;;;;;;;;;;;19.70;72.87;99813.00;317350;30;3291;-74
2023/08/11 00:25:47;;;;;;;;;;;;;;;19.69;73.01;99811.31;317354;31;1307;-74
2023/08/11 00:25:57;;;;;;;;;;;;;;;19.68;72.96;99814.94;316902;30;2970;-74
2023/08/11 00:26:07;;;;;;;;;;;;;;;19.67;73.33;99814.09;314288;31;1870;-74
2023/08/11 00:26:17;;;;;;;;;;;;;;;19.66;73.10;99811.53;315028;31;1399;-74
2023/08/11 00:26:30;;;;;;;;;;;;;;;19.66;73.01;99811.53;315506;31;2247;-74
2023/08/11 00:26:40;;;;;;;;;;;;;;;19.65;73.02;99809.84;316548;31;2964;-74
2023/08/11 00:26:51;;;;;;;;;;;;;;;19.66;73.22;99808.88;315219;31;3749;-74
2023/08/11 00:27:02;;;;;;;;;;;;;;;19.65;73.27;99812.50;314999;31;1089;-74
2023/08/11 00:27:12;;;;;;;;;;;;;;;19.65;73.34;99807.19;313858;31;4473;-74
2023/08/11 00:27:22;;;;;;;;;;;;;;;19.65;73.11;99812.50;314279;31;5028;-74
2023/08/11 00:27:32;;;;;;;;;;;;;;;19.65;73.28;99807.19;314489;31;4641;-74
2023/08/11 00:27:43;;;;;;;;;;;;;;;19.66;73.39;99811.53;312325;31;4819;-74
2023/08/11 00:27:53;;;;;;;;;;;;;;;19.65;73.14;99815.16;310072;31;5128;-74
2023/08/11 00:28:04;;;;;;;;;;;;;;;19.64;73.29;99805.50;311884;31;5177;-74
2023/08/11 00:28:14;;;;;;;;;;;;;;;19.63;73.36;99802.00;311013;31;1293;-74
2023/08/11 00:28:26;;;;;;;;;;;;;;;19.63;73.29;99811.75;308609;31;2618;-74
2023/08/11 00:28:38;;;;;;;;;;;;;;;19.64;73.08;99809.00;306273;32;3241;-74
2023/08/11 00:28:48;;;;;;;;;;;;;;;19.65;73.13;99809.84;307779;32;1480;-74
2023/08/11 00:28:58;;;;;;;;;;;;;;;19.64;73.23;99806.34;311019;31;4278;-74
2023/08/11 00:29:08;;;;;;;;;;;;;;;19.64;73.47;99808.16;308597;31;5921;-74
2023/08/11 00:29:19;;;;;;;;;;;;;;;19.64;73.17;99808.16;306230;32;6945;-74
2023/08/11 00:29:30;;;;;;;;;;;;;;;19.65;73.45;99809.84;307372;32;1527;-74
2023/08/11 00:29:40;;;;;;;;;;;;;;;19.64;73.23;99803.69;307290;32;6007;-74
2023/08/11 00:29:51;;;;;;;;;;;;;;;19.65;73.13;99804.53;306185;32;6851;-74
2023/08/11 00:30:01;;;;;;;;;;;;;;;19.64;73.12;99805.50;304242;32;1290;-74
2023/08/11 00:30:11;;;;;;;;;;;;;;;19.63;73.33;99812.63;301149;32;6470;-74
2023/08/11 00:30:24;;;;;;;;;;;;;;;19.64;73.14;99811.66;298157;32;5155;-74
2023/08/11 00:30:34;;;;;;;;;;;;;;;19.63;73.04;99806.47;298370;32;3878;-74
2023/08/11 00:30:44;;;;;;;;;;;;;;;19.64;73.15;99813.47;297979;33;1341;-74
2023/08/11 00:30:54;;;;;;;;;;;;;;;19.63;73.08;99806.47;297536;33;5048;-74
2023/08/11 00:31:05;;;;;;;;;;;;;;;19.65;73.15;99812.50;295803;33;6647;-74
2023/08/11 00:31:16;;;;;;;;;;;;;;;19.65;73.01;99810.69;294870;33;1167;-74
2023/08/11 00:31:27;;;;;;;;;;;;;;;19.65;73.02;99812.50;292311;33;8199;-74
2023/08/11 00:31:37;;;;;;;;;;;;;;;19.65;73.28;99809.84;292279;33;9398;-74
2023/08/11 00:31:48;;;;;;;;;;;;;;;19.65;73.04;99805.38;293142;33;859;-74
2023/08/11 00:31:58;;;;;;;;;;;;;;;19.65;73.06;99813.34;288699;33;8888;-74
2023/08/11 00:32:08;;;;;;;;;;;;;;;19.65;73.13;99809.84;287713;33;9917;-74
2023/08/11 00:33:57;;;;;;;;;;;;;;;19.64;73.38;99814.31;2500847;27;19937;-74
2023/08/11 00:34:07;;;;;;;;;;;;;;;19.65;73.09;99815.16;355855;27;1342;-74
2023/08/11 00:34:18;;;;;;;;;;;;;;;19.65;73.18;99810.69;354615;27;1235;-74
2023/08/11 00:34:28;;;;;;;;;;;;;;;19.64;73.53;99813.47;353552;27;1465;-74
2023/08/11 00:34:38;;;;;;;;;;;;;;;19.64;73.50;99808.16;353173;28;946;-74
2023/08/11 00:34:48;;;;;;;;;;;;;;;19.65;73.53;99816.00;353191;28;803;-74
2023/08/11 00:34:59;;;;;;;;;;;;;;;19.65;73.24;99809.84;351620;28;1309;-74
2023/08/11 00:35:09;;;;;;;;;;;;;;;19.64;73.16;99814.31;350346;28;813;-74
2023/08/11 00:35:19;;;;;;;;;;;;;;;19.63;73.50;99812.63;350316;28;1136;-74
2023/08/11 00:35:29;;;;;;;;;;;;;;;19.63;73.20;99820.56;348838;28;1366;-74
2023/08/11 00:35:43;;;;;;;;;;;;;;;19.64;73.26;99813.47;347481;28;1332;-74
2023/08/11 00:35:53;;;;;;;;;;;;;;;19.63;73.20;99817.06;347330;28;1197;-75
2023/08/11 00:36:03;;;;;;;;;;;;;;;19.63;73.31;99822.38;349560;28;1014;-74
2023/08/11 00:36:15;;;;;;;;;;;;;;;19.63;73.49;99815.28;348809;28;1227;-74
2023/08/11 00:36:25;;;;;;;;;;;;;;;19.63;73.41;99819.72;350264;28;851;-74
2023/08/11 00:36:35;;;;;;;;;;;;;;;19.63;73.56;99811.75;350135;28;2741;-74
2023/08/11 00:36:45;;;;;;;;;;;;;;;19.63;73.46;99817.06;348097;28;4514;-74
2023/08/11 00:36:55;;;;;;;;;;;;;;;19.63;73.55;99812.63;351501;28;662;-73
2023/08/11 00:37:06;;;;;;;;;;;;;;;19.62;73.62;99816.22;350479;28;5096;-73
2023/08/11 00:37:16;;;;;;;;;;;;;;;19.61;73.49;99811.88;348294;28;3038;-73
2023/08/11 00:37:27;;;;;;;;;;;;;;;19.61;73.29;99811.88;347445;28;1314;-73
2023/08/11 00:37:37;;;;;;;;;;;;;;;19.62;73.24;99816.22;350250;28;1350;-73
2023/08/11 00:37:47;;;;;;;;;;;;;;;19.60;73.53;99813.69;347437;28;964;-73
2023/08/11 00:37:58;;;;;;;;;;;;;;;19.60;73.33;99813.69;347511;28;1348;-73
2023/08/11 00:38:08;;;;;;;;;;;;;;;19.60;73.54;99819.00;347322;28;919;-73
2023/08/11 00:38:21;;;;;;;;;;;;;;;19.60;73.22;99811.03;346135;28;1205;-73
2023/08/11 00:38:40;;;;;;;;;;;;;;;19.59;73.52;99814.66;342052;28;1241;-73
2023/08/11 00:38:50;;;;;;;;;;;;;;;19.60;73.51;99818.16;346131;28;1190;-73
2023/08/11 00:39:00;;;;;;;;;;;;;;;19.60;73.18;99819.00;344756;28;1298;-73
2023/08/11 00:39:12;;;;;;;;;;;;;;;19.59;73.48;99812.00;347342;28;1227;-73
2023/08/11 00:39:23;;;;;;;;;;;;;;;19.58;73.31;99818.25;347747;28;871;-73
2023/08/11 00:39:33;;;;;;;;;;;;;;;19.57;73.53;99819.22;350201;28;1471;-73
2023/08/11 00:39:45;;;;;;;;;;;;;;;19.58;73.38;99820.06;347423;28;1216;-75
2023/08/11 00:39:55;;;;;;;;;;;;;;;19.57;73.51;99813.91;347513;28;1034;-74
2023/08/11 00:40:06;;;;;;;;;;;;;;;19.57;73.59;99813.91;345307;28;1274;-74
2023/08/11 00:40:16;;;;;;;;;;;;;;;19.57;73.23;99813.06;344591;28;1050;-74
2023/08/11 00:40:27;;;;;;;;;;;;;;;19.57;73.43;99813.06;344975;28;1425;-74
2023/08/11 00:40:37;;;;;;;;;;;;;;;19.56;73.26;99812.22;343132;28;1391;-74
2023/08/11 00:40:47;;;;;;;;;;;;;;;19.56;73.63;99806.91;341985;28;1250;-74
2023/08/11 00:40:57;;;;;;;;;;;;;;;19.57;73.59;99813.06;338125;29;1361;-74
2023/08/11 00:41:07;;;;;;;;;;;;;;;19.57;73.53;99813.91;339431;29;1318;-74
2023/08/11 00:41:18;;;;;;;;;;;;;;;19.57;73.23;99816.56;340762;29;878;-74
2023/08/11 00:41:28;;;;;;;;;;;;;;;19.57;73.33;99813.06;339630;29;802;-74
2023/08/11 00:41:38;;;;;;;;;;;;;;;19.57;73.57;99813.91;342948;28;861;-74
2023/08/11 00:41:49;;;;;;;;;;;;;;;19.58;73.39;99820.06;340498;28;1279;-74
2023/08/11 00:41:59;;;;;;;;;;;;;;;19.57;73.48;99813.91;341202;29;1205;-74
2023/08/11 00:42:09;;;;;;;;;;;;;;;19.57;73.17;99813.91;342237;28;1495;-74
2023/08/11 00:42:20;;;;;;;;;;;;;;;19.57;73.21;99813.91;342224;28;1696;-74
2023/08/11 00:42:30;;;;;;;;;;;;;;;19.57;73.45;99816.56;343484;28;1234;-74
2023/08/11 00:42:40;;;;;;;;;;;;;;;19.57;73.12;99811.25;343271;28;1632;-74
2023/08/11 00:42:50;;;;;;;;;;;;;;;19.57;73.32;99813.06;344513;28;1938;-74
2023/08/11 00:43:01;;;;;;;;;;;;;;;19.58;73.08;99814.75;344866;28;872;-74
2023/08/11 00:43:11;;;;;;;;;;;;;;;19.58;73.33;99820.06;341917;28;1251;-74
2023/08/11 00:43:21;;;;;;;;;;;;;;;19.58;73.05;99815.63;339445;29;1407;-74
2023/08/11 00:43:31;;;;;;;;;;;;;;;19.57;72.95;99813.91;339345;29;878;-74
2023/08/11 00:43:42;;;;;;;;;;;;;;;19.57;73.35;99813.91;336841;29;1406;-74
2023/08/11 00:43:52;;;;;;;;;;;;;;;19.57;72.93;99819.22;337954;29;1370;-74
2023/08/11 00:44:03;;;;;;;;;;;;;;;19.58;73.20;99820.91;335806;29;2464;-74
2023/08/11 00:44:13;;;;;;;;;;;;;;;19.57;72.83;99818.38;332917;29;1471;-74
2023/08/11 00:44:23;;;;;;;;;;;;;;;19.57;73.23;99816.56;331091;29;1828;-74
2023/08/11 00:44:33;;;;;;;;;;;;;;;19.57;73.28;99813.91;329140;29;2053;-73
2023/08/11 00:44:43;;;;;;;;;;;;;;;19.58;73.17;99814.75;329384;30;1239;-74
2023/08/11 00:44:54;;;;;;;;;;;;;;;19.57;72.85;99811.25;332760;29;2262;-74
2023/08/11 00:45:05;;;;;;;;;;;;;;;19.58;72.83;99815.63;332835;29;1670;-74
2023/08/11 00:45:16;;;;;;;;;;;;;;;19.57;72.94;99819.22;330145;29;1090;-74
2023/08/11 00:45:26;;;;;;;;;;;;;;;19.57;73.08;99813.91;330351;29;992;-74
2023/08/11 00:45:36;;;;;;;;;;;;;;;19.57;73.11;99816.56;330439;29;853;-74
2023/08/11 00:45:47;;;;;;;;;;;;;;;19.57;73.13;99813.91;329041;29;2360;-74
2023/08/11 00:45:59;;;;;;;;;;;;;;;19.57;73.10;99810.41;330015;29;2849;-75
2023/08/11 00:46:12;;;;;;;;;;;;;;;19.57;73.18;99813.91;331072;29;5139;-75
2023/08/11 00:46:22;;;;;;;;;;;;;;;19.56;73.14;99812.22;326764;29;5184;-74
2023/08/11 00:46:33;;;;;;;;;;;;;;;19.56;73.21;99812.22;326528;29;2316;-74
2023/08/11 00:46:43;;;;;;;;;;;;;;;19.56;73.26;99814.88;330584;29;1097;-74
2023/08/11 00:46:53;;;;;;;;;;;;;;;19.57;73.26;99813.91;330093;29;2439;-74
2023/08/11 00:47:04;;;;;;;;;;;;;;;19.56;73.07;99820.19;328438;29;2605;-74
2023/08/11 00:47:15;;;;;;;;;;;;;;;19.57;73.12;99813.91;326953;30;1399;-74
2023/08/11 00:47:26;;;;;;;;;;;;;;;19.57;72.74;99813.91;328943;30;1808;-74
2023/08/11 00:47:37;;;;;;;;;;;;;;;19.57;72.93;99808.59;327111;30;1073;-74
2023/08/11 00:47:48;;;;;;;;;;;;;;;19.57;73.26;99811.25;322814;30;1926;-74
2023/08/11 00:47:59;;;;;;;;;;;;;;;19.58;73.10;99810.31;324430;30;1235;-74
2023/08/11 00:48:09;;;;;;;;;;;;;;;19.58;72.72;99818.25;326505;30;2477;-76
2023/08/11 00:48:19;;;;;;;;;;;;;;;19.57;73.28;99813.91;327075;29;2755;-75
2023/08/11 00:48:29;;;;;;;;;;;;;;;19.56;73.05;99806.06;328103;30;918;-75
2023/08/11 00:48:41;;;;;;;;;;;;;;;19.57;73.04;99813.91;328235;29;2891;-75
2023/08/11 00:48:51;;;;;;;;;;;;;;;19.56;72.85;99811.38;324963;30;3212;-75
2023/08/11 00:49:02;;;;;;;;;;;;;;;19.55;73.02;99810.53;325279;29;3324;-75
2023/08/11 00:49:13;;;;;;;;;;;;;;;19.53;72.73;99807.13;327962;30;860;-74
2023/08/11 00:49:24;;;;;;;;;;;;;;;19.54;72.78;99815.94;326255;30;3278;-74
2023/08/11 00:49:34;;;;;;;;;;;;;;;19.51;72.82;99814.38;325249;30;2468;-74
2023/08/11 00:49:44;;;;;;;;;;;;;;;19.52;72.66;99805.44;324412;30;1111;-74
2023/08/11 00:49:54;;;;;;;;;;;;;;;19.51;72.82;99803.75;320218;30;2068;-74
2023/08/11 00:50:06;;;;;;;;;;;;;;;19.51;72.93;99809.06;320398;30;2665;-74
2023/08/11 00:50:17;;;;;;;;;;;;;;;19.52;72.95;99805.44;322487;30;3195;-74
2023/08/11 00:50:27;;;;;;;;;;;;;;;19.51;72.77;99809.06;320915;30;841;-74
2023/08/11 00:50:37;;;;;;;;;;;;;;;19.51;72.66;99809.06;318735;30;3961;-74
2023/08/11 00:50:47;;;;;;;;;;;;;;;19.50;72.95;99804.69;316566;30;4201;-74
2023/08/11 00:50:58;;;;;;;;;;;;;;;19.50;72.89;99802.03;318201;31;1379;-74
2023/08/11 00:51:09;;;;;;;;;;;;;;;19.50;72.61;99806.50;314638;31;4363;-74
2023/08/11 00:51:21;;;;;;;;;;;;;;;19.50;72.79;99802.03;313310;31;4650;-74
2023/08/11 00:51:31;;;;;;;;;;;;;;;19.49;72.65;99805.69;315132;31;794;-74
2023/08/11 00:51:41;;;;;;;;;;;;;;;19.50;72.47;99809.13;313396;31;4605;-74
2023/08/11 00:51:52;;;;;;;;;;;;;;;19.50;72.44;99811.78;312200;31;3703;-75
2023/08/11 00:52:03;;;;;;;;;;;;;;;19.50;72.76;99807.34;311109;31;2901;-74
2023/08/11 00:52:13;;;;;;;;;;;;;;;19.50;72.70;99810.00;310495;31;1404;-74
2023/08/11 00:52:23;;;;;;;;;;;;;;;19.50;72.69;99807.34;308984;31;3653;-73
2023/08/11 00:52:34;;;;;;;;;;;;;;;19.51;72.51;99813.53;306720;31;5753;-73
2023/08/11 00:52:45;;;;;;;;;;;;;;;19.51;72.83;99813.53;305165;32;1411;-75
2023/08/11 00:52:55;;;;;;;;;;;;;;;19.51;72.56;99806.41;302718;32;5689;-74
2023/08/11 00:53:05;;;;;;;;;;;;;;;19.52;72.60;99810.75;300630;32;6241;-74
2023/08/11 00:53:15;;;;;;;;;;;;;;;19.52;72.87;99812.56;302052;32;993;-74
2023/08/11 00:53:26;;;;;;;;;;;;;;;19.50;72.86;99817.94;303064;32;6098;-74
2023/08/11 00:53:36;;;;;;;;;;;;;;;19.51;72.57;99808.22;302199;32;6669;-74
2023/08/11 00:53:46;;;;;;;;;;;;;;;19.51;72.83;99809.06;299619;32;2238;-74
2023/08/11 00:53:57;;;;;;;;;;;;;;;19.50;72.66;99812.66;295117;33;886;-74
2023/08/11 00:54:07;;;;;;;;;;;;;;;19.50;72.86;99807.34;295705;33;5299;-74
2023/08/11 00:54:17;;;;;;;;;;;;;;;19.51;72.62;99814.38;296700;33;4646;-74
2023/08/11 00:54:28;;;;;;;;;;;;;;;19.51;72.42;99809.06;296871;33;1437;-74
2023/08/11 00:54:39;;;;;;;;;;;;;;;19.51;72.55;99808.22;294650;33;6187;-74
2023/08/11 00:54:49;;;;;;;;;;;;;;;19.51;72.82;99811.72;293670;33;7348;-74
2023/08/11 00:54:59;;;;;;;;;;;;;;;19.52;72.75;99815.22;294224;33;863;-74
2023/08/11 00:55:10;;;;;;;;;;;;;;;19.51;72.55;99814.38;290504;33;8239;-73
2023/08/11 00:55:21;;;;;;;;;;;;;;;19.51;72.56;99814.38;289577;33;8938;-74
2023/08/11 00:56:54;;;;;;;;;;;;;;;19.50;72.47;99823.25;2499461;27;19922;-73
2023/08/11 00:57:05;;;;;;;;;;;;;;;19.49;72.13;99813.63;356003;27;1273;-73
2023/08/11 00:57:15;;;;;;;;;;;;;;;19.49;72.47;99818.09;354312;27;1210;-73
2023/08/11 00:57:26;;;;;;;;;;;;;;;19.48;72.59;99814.59;353139;28;831;-73
2023/08/11 00:57:37;;;;;;;;;;;;;;;19.48;72.39;99811.94;351759;28;737;-73
2023/08/11 00:57:47;;;;;;;;;;;;;;;19.48;72.47;99822.56;349646;28;1403;-73
2023/08/11 00:57:57;;;;;;;;;;;;;;;19.49;72.37;99818.09;349083;28;888;-73
2023/08/11 00:58:07;;;;;;;;;;;;;;;19.50;72.35;99819.75;348845;28;884;-73
2023/08/11 00:58:18;;;;;;;;;;;;;;;19.50;72.10;99815.31;348697;28;1623;-73
2023/08/11 00:58:28;;;;;;;;;;;;;;;19.50;72.33;99817.94;348930;28;847;-73
2023/08/11 00:58:38;;;;;;;;;;;;;;;19.51;71.99;99817.03;348986;28;867;-73
2023/08/11 00:58:49;;;;;;;;;;;;;;;19.51;72.44;99818.84;350265;28;1310;-73
2023/08/11 00:58:59;;;;;;;;;;;;;;;19.50;72.26;99817.09;351076;28;1090;-73
2023/08/11 00:59:10;;;;;;;;;;;;;;;19.50;72.20;99817.09;350093;28;1431;-73
2023/08/11 00:59:20;;;;;;;;;;;;;;;19.49;72.24;99810.97;349764;28;1368;-73
2023/08/11 00:59:30;;;;;;;;;;;;;;;19.50;71.91;99822.41;349665;28;1351;-73
2023/08/11 00:59:41;;;;;;;;;;;;;;;19.49;72.10;99816.28;348977;28;872;-73
2023/08/11 00:59:51;;;;;;;;;;;;;;;19.50;71.85;99812.66;348987;28;1207;-73
2023/08/11 01:00:14;;;;;;;;;;;;;;;19.50;71.83;99819.75;348551;28;1515;-73
2023/08/11 01:00:24;;;;;;;;;;;;;;;19.49;71.94;99824.25;349755;28;1239;-73
2023/08/11 01:00:36;;;;;;;;;;;;;;;19.47;72.25;99814.72;347492;28;1410;-73
2023/08/11 01:00:47;;;;;;;;;;;;;;;19.48;72.29;99817.25;349011;28;951;-73
2023/08/11 01:00:59;;;;;;;;;;;;;;;19.48;71.83;99814.59;350345;28;1267;-73
2023/08/11 01:01:10;;;;;;;;;;;;;;;19.48;72.27;99814.59;346986;28;1366;-73
2023/08/11 01:01:20;;;;;;;;;;;;;;;19.49;71.91;99818.94;347454;28;916;-74
2023/08/11 01:01:30;;;;;;;;;;;;;;;19.48;71.89;99817.25;347311;28;1593;-74